Time;durP1;ratioP1;P1;durP2;ratioP2;P2;SDS_P1;SDS_P2;PMS_P1;PMS_P2;Temp;Humidity;BMP_temperature;BMP_pressure;BME280_temperature;BME280_humidity;BME280_pressure;Samples;Min_cycle;Max_cycle;Signal;HPM_P1;HPM_P2
2022/08/05 00:01:12;;;;;;;;;;;24.10;61.30;;;;;;5067378;28;19956;-61
2022/08/05 00:03:38;;;;;;;;;;;24.10;61.30;;;;;;5085433;28;19948;-63
2022/08/05 00:06:07;;;;;;;;;;;24.10;61.50;;;;;;5082927;28;19925;-61
2022/08/05 00:08:34;;;;;;;;;;;24.10;61.20;;;;;;5103105;28;20267;-62
2022/08/05 00:11:01;;;;;;;;;;;24.10;61.00;;;;;;5071384;28;19955;-61
2022/08/05 00:13:28;;;;;;;;;;;24.10;60.90;;;;;;5104801;28;19928;-61
2022/08/05 00:15:55;;;;;;;;;;;24.10;60.80;;;;;;5069456;28;19925;-61
2022/08/05 00:18:21;;;;;;;;;;;24.10;60.70;;;;;;5067866;28;19944;-62
2022/08/05 00:20:51;;;;;;;;;;;24.00;60.50;;;;;;5091977;27;19920;-60
2022/08/05 00:23:19;;;;;;;;;;;24.00;60.30;;;;;;5069875;28;19978;-60
2022/08/05 00:25:46;;;;;;;;;;;24.00;60.20;;;;;;5085137;28;20309;-62
2022/08/05 00:28:13;;;;;;;;;;;24.00;60.00;;;;;;5065767;28;19924;-61
2022/08/05 00:30:39;;;;;;;;;;;24.00;59.90;;;;;;5078906;28;19978;-61
2022/08/05 00:33:06;;;;;;;;;;;23.90;59.60;;;;;;5087126;28;20381;-61
2022/08/05 00:35:33;;;;;;;;;;;24.00;59.60;;;;;;5072505;28;19927;-60
2022/08/05 00:38:00;;;;;;;;;;;23.90;60.00;;;;;;5096279;28;19921;-62
2022/08/05 00:40:28;;;;;;;;;;;23.90;59.30;;;;;;5100862;27;20369;-62
2022/08/05 00:42:55;;;;;;;;;;;23.90;59.10;;;;;;5102823;28;19952;-61
2022/08/05 00:45:24;;;;;;;;;;;23.90;59.00;;;;;;5103500;28;20012;-62
2022/08/05 00:47:51;;;;;;;;;;;23.80;58.70;;;;;;5103056;28;20013;-61
2022/08/05 00:50:17;;;;;;;;;;;23.80;58.60;;;;;;5086933;28;19924;-61
2022/08/05 00:52:44;;;;;;;;;;;23.80;58.50;;;;;;5065146;28;20289;-61
2022/08/05 00:55:11;;;;;;;;;;;23.80;58.40;;;;;;5078948;28;19935;-63
2022/08/05 00:57:39;;;;;;;;;;;23.80;58.40;;;;;;5069976;28;19921;-62
2022/08/05 01:00:07;;;;;;;;;;;23.80;58.30;;;;;;5096582;27;20316;-61
2022/08/05 01:02:33;;;;;;;;;;;23.80;58.30;;;;;;5058888;28;20313;-62
2022/08/05 01:05:00;;;;;;;;;;;23.80;58.30;;;;;;5098444;28;20451;-62
2022/08/05 01:07:27;;;;;;;;;;;23.80;58.20;;;;;;5069293;28;20571;-63
2022/08/05 01:09:53;;;;;;;;;;;23.70;58.00;;;;;;5068662;28;20293;-62
2022/08/05 01:12:20;;;;;;;;;;;23.80;58.00;;;;;;5090385;28;19924;-63
2022/08/05 01:14:50;;;;;;;;;;;23.80;58.00;;;;;;5069180;28;19931;-62
2022/08/05 01:17:19;;;;;;;;;;;23.80;58.00;;;;;;5071019;28;19931;-62
2022/08/05 01:19:47;;;;;;;;;;;23.80;58.00;;;;;;5097663;28;19927;-61
2022/08/05 01:22:25;;;;;;;;;;;23.80;57.90;;;;;;5085712;28;19920;-62
2022/08/05 01:24:58;;;;;;;;;;;23.70;57.80;;;;;;5090720;28;19931;-61
2022/08/05 01:27:29;;;;;;;;;;;23.80;58.30;;;;;;5078982;28;19974;-62
2022/08/05 01:29:58;;;;;;;;;;;23.70;57.60;;;;;;5069424;28;19928;-62
2022/08/05 01:32:25;;;;;;;;;;;23.70;57.60;;;;;;5079595;28;19973;-62
2022/08/05 01:34:54;;;;;;;;;;;23.80;57.60;;;;;;5070123;28;19920;-61
2022/08/05 01:37:22;;;;;;;;;;;23.70;57.50;;;;;;5080036;28;19924;-62
2022/08/05 01:39:49;;;;;;;;;;;23.70;57.40;;;;;;5086416;28;19925;-62
2022/08/05 01:42:16;;;;;;;;;;;23.70;57.40;;;;;;5097009;28;20011;-62
2022/08/05 01:44:43;;;;;;;;;;;23.80;57.40;;;;;;5068729;28;19928;-62
2022/08/05 01:47:11;;;;;;;;;;;23.80;57.30;;;;;;5100997;28;19921;-62
2022/08/05 01:49:38;;;;;;;;;;;23.80;57.30;;;;;;5065777;28;20011;-62
2022/08/05 01:52:06;;;;;;;;;;;23.80;57.20;;;;;;5086157;28;19921;-62
2022/08/05 01:54:33;;;;;;;;;;;23.80;56.90;;;;;;5063916;28;19927;-60
2022/08/05 01:57:00;;;;;;;;;;;23.70;56.70;;;;;;5066446;28;19928;-61
2022/08/05 01:59:26;;;;;;;;;;;23.70;56.70;;;;;;5069036;28;19928;-62
2022/08/05 02:01:54;;;;;;;;;;;23.70;56.70;;;;;;5067232;28;19921;-61
2022/08/05 02:04:22;;;;;;;;;;;23.70;56.70;;;;;;5070048;28;20445;-62
2022/08/05 02:06:48;;;;;;;;;;;23.70;56.80;;;;;;5088007;28;19974;-61
2022/08/05 02:09:15;;;;;;;;;;;23.70;56.70;;;;;;5069600;28;19921;-62
2022/08/05 02:11:43;;;;;;;;;;;23.70;56.70;;;;;;5097995;28;20277;-61
2022/08/05 02:14:11;;;;;;;;;;;23.70;56.70;;;;;;5100203;28;19921;-62
2022/08/05 02:16:39;;;;;;;;;;;23.70;56.70;;;;;;5099477;28;20340;-62
2022/08/05 02:19:07;;;;;;;;;;;23.70;56.70;;;;;;5061119;28;19956;-62
2022/08/05 02:21:36;;;;;;;;;;;23.80;56.70;;;;;;5062494;28;19966;-61
2022/08/05 02:24:04;;;;;;;;;;;23.70;56.50;;;;;;5068813;28;19963;-62
2022/08/05 02:26:33;;;;;;;;;;;23.70;56.30;;;;;;5070006;28;20366;-62
2022/08/05 02:29:00;;;;;;;;;;;23.70;56.10;;;;;;5083684;28;20010;-62
2022/08/05 02:31:27;;;;;;;;;;;23.70;55.90;;;;;;5076154;28;20323;-62
2022/08/05 02:33:55;;;;;;;;;;;23.70;55.90;;;;;;5068308;28;19924;-62
2022/08/05 02:36:22;;;;;;;;;;;23.60;55.90;;;;;;5069987;28;19932;-61
2022/08/05 02:38:50;;;;;;;;;;;23.70;56.10;;;;;;5062023;28;19925;-62
2022/08/05 02:41:17;;;;;;;;;;;23.70;56.20;;;;;;5102465;28;20015;-62
2022/08/05 02:43:44;;;;;;;;;;;23.70;56.30;;;;;;5070494;28;19970;-62
2022/08/05 02:46:12;;;;;;;;;;;23.70;56.30;;;;;;5096604;28;20280;-62
2022/08/05 02:48:41;;;;;;;;;;;23.70;56.50;;;;;;5099806;28;19924;-62
2022/08/05 02:51:07;;;;;;;;;;;23.70;56.40;;;;;;5094198;28;19959;-61
2022/08/05 02:53:34;;;;;;;;;;;23.70;56.40;;;;;;5101724;28;19952;-62
2022/08/05 02:56:02;;;;;;;;;;;23.70;56.50;;;;;;5065852;28;20278;-62
2022/08/05 02:58:29;;;;;;;;;;;23.70;56.60;;;;;;5061825;28;19929;-61
2022/08/05 03:00:56;;;;;;;;;;;23.70;56.70;;;;;;5074125;28;19973;-62
2022/08/05 03:03:23;;;;;;;;;;;23.70;56.70;;;;;;5083397;28;19932;-62
2022/08/05 03:05:49;;;;;;;;;;;23.70;56.80;;;;;;5079697;28;19924;-62
2022/08/05 03:08:16;;;;;;;;;;;23.70;56.80;;;;;;5082061;28;19921;-62
2022/08/05 03:10:43;;;;;;;;;;;23.70;56.80;;;;;;5050518;28;19925;-63
2022/08/05 03:13:15;;;;;;;;;;;23.70;56.90;;;;;;5067371;28;19920;-62
2022/08/05 03:15:42;;;;;;;;;;;23.70;56.90;;;;;;5101263;28;19920;-62
2022/08/05 03:18:09;;;;;;;;;;;23.70;57.00;;;;;;5065039;28;19933;-62
2022/08/05 03:20:36;;;;;;;;;;;23.70;57.00;;;;;;5068230;28;20277;-62
2022/08/05 03:23:03;;;;;;;;;;;23.80;57.10;;;;;;5086060;28;20424;-62
2022/08/05 03:25:29;;;;;;;;;;;23.80;57.20;;;;;;5078152;28;20436;-62
2022/08/05 03:27:56;;;;;;;;;;;23.80;57.20;;;;;;5085390;28;20306;-62
2022/08/05 03:30:25;;;;;;;;;;;23.80;57.30;;;;;;5064579;28;19921;-60
2022/08/05 03:32:52;;;;;;;;;;;23.80;57.30;;;;;;5084945;28;19925;-60
2022/08/05 03:35:19;;;;;;;;;;;23.80;57.40;;;;;;5098500;28;19925;-62
2022/08/05 03:37:45;;;;;;;;;;;23.80;57.40;;;;;;5069103;28;20614;-61
2022/08/05 03:40:12;;;;;;;;;;;23.80;57.50;;;;;;5096367;28;20369;-60
2022/08/05 03:42:39;;;;;;;;;;;23.80;57.50;;;;;;5098485;28;19924;-61
2022/08/05 03:45:08;;;;;;;;;;;23.80;57.40;;;;;;5090499;28;19927;-60
2022/08/05 03:47:36;;;;;;;;;;;23.80;57.40;;;;;;5104181;28;20385;-62
2022/08/05 03:50:03;;;;;;;;;;;23.80;57.40;;;;;;5088009;28;19927;-61
2022/08/05 03:52:32;;;;;;;;;;;23.80;57.40;;;;;;5060138;28;19935;-60
2022/08/05 03:54:59;;;;;;;;;;;23.80;57.40;;;;;;5051742;28;19928;-61
2022/08/05 03:57:28;;;;;;;;;;;23.80;57.30;;;;;;5063266;28;20278;-61
2022/08/05 03:59:56;;;;;;;;;;;23.80;57.30;;;;;;5095092;28;19920;-61
2022/08/05 04:02:23;;;;;;;;;;;23.80;57.30;;;;;;5090151;28;19920;-60
2022/08/05 04:04:51;;;;;;;;;;;23.80;57.20;;;;;;5088304;28;19991;-60
2022/08/05 04:07:18;;;;;;;;;;;23.80;57.20;;;;;;5070080;28;19927;-60
2022/08/05 04:09:45;;;;;;;;;;;23.80;57.20;;;;;;5071099;28;20339;-61
2022/08/05 04:12:11;;;;;;;;;;;23.80;57.20;;;;;;5080812;28;19925;-61
2022/08/05 04:14:38;;;;;;;;;;;23.80;57.20;;;;;;5074965;28;19964;-62
2022/08/05 04:17:05;;;;;;;;;;;23.80;57.10;;;;;;5070046;28;20019;-62
2022/08/05 04:19:32;;;;;;;;;;;23.80;57.10;;;;;;5068862;28;19970;-61
2022/08/05 04:22:00;;;;;;;;;;;23.80;57.10;;;;;;5089360;28;19981;-62
2022/08/05 04:24:26;;;;;;;;;;;23.80;57.00;;;;;;5064599;28;19921;-60
2022/08/05 04:26:53;;;;;;;;;;;23.70;57.00;;;;;;5060855;28;19921;-62
2022/08/05 04:29:20;;;;;;;;;;;23.80;57.00;;;;;;5087371;28;19924;-61
2022/08/05 04:31:47;;;;;;;;;;;23.80;57.00;;;;;;5089899;28;19920;-61
2022/08/05 04:34:14;;;;;;;;;;;23.80;57.00;;;;;;5092110;28;19952;-62
2022/08/05 04:36:40;;;;;;;;;;;23.80;57.00;;;;;;5060374;28;20365;-62
2022/08/05 04:39:09;;;;;;;;;;;23.80;57.00;;;;;;5088179;28;20019;-62
2022/08/05 04:41:36;;;;;;;;;;;23.80;57.00;;;;;;5070713;28;19983;-61
2022/08/05 04:44:03;;;;;;;;;;;23.80;57.00;;;;;;5068321;28;19932;-62
2022/08/05 04:46:29;;;;;;;;;;;23.80;57.00;;;;;;5071514;28;19962;-62
2022/08/05 04:48:56;;;;;;;;;;;23.70;56.80;;;;;;5083263;28;20346;-61
2022/08/05 04:51:23;;;;;;;;;;;23.80;56.90;;;;;;5088954;28;20014;-61
2022/08/05 04:53:50;;;;;;;;;;;23.70;56.80;;;;;;5107918;28;19920;-61
2022/08/05 04:56:18;;;;;;;;;;;23.70;56.80;;;;;;5085153;28;19928;-60
2022/08/05 04:58:45;;;;;;;;;;;23.70;56.80;;;;;;5053369;28;19920;-62
2022/08/05 05:01:11;;;;;;;;;;;23.70;56.70;;;;;;5064599;28;19929;-61
2022/08/05 05:03:38;;;;;;;;;;;23.70;56.70;;;;;;5072195;28;19920;-62
2022/08/05 05:06:05;;;;;;;;;;;23.70;56.70;;;;;;5103087;28;19920;-61
2022/08/05 05:08:32;;;;;;;;;;;23.70;56.70;;;;;;5068886;28;20281;-61
2022/08/05 05:10:59;;;;;;;;;;;23.70;56.60;;;;;;5085628;28;19969;-62
2022/08/05 05:13:27;;;;;;;;;;;23.60;56.50;;;;;;5087448;28;19921;-62
2022/08/05 05:15:53;;;;;;;;;;;23.70;56.60;;;;;;5071006;28;19963;-61
2022/08/05 05:18:20;;;;;;;;;;;23.60;56.50;;;;;;5065676;28;19931;-62
2022/08/05 05:20:47;;;;;;;;;;;23.60;56.50;;;;;;5070588;28;19920;-61
2022/08/05 05:23:14;;;;;;;;;;;23.60;56.50;;;;;;5104027;27;19969;-61
2022/08/05 05:25:40;;;;;;;;;;;23.60;56.50;;;;;;5054766;28;20415;-62
2022/08/05 05:28:07;;;;;;;;;;;23.60;56.50;;;;;;5076924;28;19933;-62
2022/08/05 05:30:35;;;;;;;;;;;23.60;56.50;;;;;;5072946;28;19932;-61
2022/08/05 05:33:03;;;;;;;;;;;23.60;56.50;;;;;;5063596;28;19920;-61
2022/08/05 05:35:30;;;;;;;;;;;23.60;56.50;;;;;;5061247;28;19924;-62
2022/08/05 05:37:58;;;;;;;;;;;23.60;56.50;;;;;;5068539;28;19928;-61
2022/08/05 05:40:25;;;;;;;;;;;23.60;56.50;;;;;;5070307;28;19939;-62
2022/08/05 05:42:52;;;;;;;;;;;23.70;56.60;;;;;;5065838;28;19932;-61
2022/08/05 05:45:19;;;;;;;;;;;23.70;56.60;;;;;;5084202;28;19932;-61
2022/08/05 05:47:47;;;;;;;;;;;23.70;56.60;;;;;;5069553;28;19921;-62
2022/08/05 05:50:15;;;;;;;;;;;23.70;56.60;;;;;;5070440;28;19921;-61
2022/08/05 05:52:41;;;;;;;;;;;23.60;56.60;;;;;;5094568;28;19977;-62
2022/08/05 05:55:09;;;;;;;;;;;23.60;56.60;;;;;;5050772;28;19943;-61
2022/08/05 05:57:36;;;;;;;;;;;23.60;56.60;;;;;;5057884;28;19920;-63
2022/08/05 06:00:03;;;;;;;;;;;23.70;56.70;;;;;;5070493;28;19967;-61
2022/08/05 06:02:29;;;;;;;;;;;23.60;56.60;;;;;;5068394;28;19921;-62
2022/08/05 06:04:57;;;;;;;;;;;23.70;56.70;;;;;;5059733;28;19924;-62
2022/08/05 06:07:24;;;;;;;;;;;23.70;56.70;;;;;;5062414;28;20486;-62
2022/08/05 06:09:51;;;;;;;;;;;23.70;56.60;;;;;;5097984;28;19924;-62
2022/08/05 06:12:18;;;;;;;;;;;23.70;56.60;;;;;;5078432;28;19974;-61
2022/08/05 06:14:45;;;;;;;;;;;23.70;56.60;;;;;;5057285;28;19982;-62
2022/08/05 06:17:11;;;;;;;;;;;23.70;56.60;;;;;;5075841;28;20027;-62
2022/08/05 06:19:39;;;;;;;;;;;23.70;56.60;;;;;;5081422;28;19970;-62
2022/08/05 06:22:07;;;;;;;;;;;23.60;56.50;;;;;;5079236;28;19928;-61
2022/08/05 06:24:34;;;;;;;;;;;23.70;56.60;;;;;;5056592;28;19921;-61
2022/08/05 06:27:00;;;;;;;;;;;23.70;56.60;;;;;;5051432;28;20048;-62
2022/08/05 06:29:27;;;;;;;;;;;23.70;56.60;;;;;;5069155;28;19964;-62
2022/08/05 06:31:54;;;;;;;;;;;23.70;56.60;;;;;;5072022;28;19942;-61
2022/08/05 06:34:20;;;;;;;;;;;23.70;56.60;;;;;;5095242;28;19950;-61
2022/08/05 06:36:48;;;;;;;;;;;23.70;56.60;;;;;;5076612;28;19959;-61
2022/08/05 06:39:16;;;;;;;;;;;23.70;56.70;;;;;;5071536;28;19936;-62
2022/08/05 06:41:43;;;;;;;;;;;23.70;56.70;;;;;;5073853;28;19924;-62
2022/08/05 06:44:09;;;;;;;;;;;23.70;56.70;;;;;;5068330;28;19966;-62
2022/08/05 06:46:36;;;;;;;;;;;23.70;56.70;;;;;;5077623;28;19920;-61
2022/08/05 06:49:03;;;;;;;;;;;23.70;56.70;;;;;;5092011;28;19974;-62
2022/08/05 06:51:29;;;;;;;;;;;23.70;56.70;;;;;;5069067;28;19968;-61
2022/08/05 06:53:57;;;;;;;;;;;23.70;56.70;;;;;;5073442;28;19928;-61
2022/08/05 06:56:25;;;;;;;;;;;23.70;56.70;;;;;;5086421;28;19983;-61
2022/08/05 06:58:52;;;;;;;;;;;23.70;57.40;;;;;;5081756;28;20001;-61
2022/08/05 07:01:18;;;;;;;;;;;23.70;56.80;;;;;;5064958;28;19932;-61
2022/08/05 07:03:45;;;;;;;;;;;23.70;56.80;;;;;;5089851;28;19925;-62
2022/08/05 07:06:12;;;;;;;;;;;23.70;56.80;;;;;;5076312;28;19986;-61
2022/08/05 07:08:39;;;;;;;;;;;23.70;56.70;;;;;;5064168;28;19928;-61
2022/08/05 07:11:05;;;;;;;;;;;23.70;56.70;;;;;;5068339;28;19928;-61
2022/08/05 07:19:03;;;;;;;;;;;23.60;56.50;;;;;;5070512;28;19923;-62
2022/08/05 07:21:29;;;;;;;;;;;23.70;56.50;;;;;;5093304;28;20324;-62
2022/08/05 07:23:56;;;;;;;;;;;23.60;56.40;;;;;;5090491;28;19974;-62
2022/08/05 07:26:23;;;;;;;;;;;23.60;56.40;;;;;;5059237;28;19932;-63
2022/08/05 07:28:51;;;;;;;;;;;23.60;56.40;;;;;;5084225;28;19920;-61
2022/08/05 07:31:18;;;;;;;;;;;23.60;56.30;;;;;;5078506;28;20366;-60
2022/08/05 07:33:45;;;;;;;;;;;23.70;56.40;;;;;;5074509;28;19921;-61
2022/08/05 07:36:13;;;;;;;;;;;23.60;56.30;;;;;;5076138;28;19928;-60
2022/08/05 07:38:39;;;;;;;;;;;23.60;56.30;;;;;;5082463;28;19932;-59
2022/08/05 07:41:07;;;;;;;;;;;23.60;56.20;;;;;;5083391;28;20258;-60
2022/08/05 07:43:33;;;;;;;;;;;23.70;56.20;;;;;;5094143;28;20435;-62
2022/08/05 07:46:02;;;;;;;;;;;23.70;56.10;;;;;;5095631;28;19924;-62
2022/08/05 07:48:28;;;;;;;;;;;23.60;56.00;;;;;;5087665;28;20362;-62
2022/08/05 07:50:55;;;;;;;;;;;23.70;56.00;;;;;;5079336;28;19920;-61
2022/08/05 07:53:22;;;;;;;;;;;23.60;56.00;;;;;;5061884;28;19985;-62
2022/08/05 07:55:48;;;;;;;;;;;23.60;56.00;;;;;;5072515;28;19927;-61
2022/08/05 07:58:15;;;;;;;;;;;23.60;56.60;;;;;;5083826;28;19969;-61
2022/08/05 08:00:42;;;;;;;;;;;23.60;56.10;;;;;;5082502;28;19925;-62
2022/08/05 08:03:11;;;;;;;;;;;23.60;56.20;;;;;;5070290;28;19920;-62
2022/08/05 08:05:38;;;;;;;;;;;23.60;56.20;;;;;;5075374;28;19920;-62
2022/08/05 08:08:04;;;;;;;;;;;23.60;56.30;;;;;;5073290;28;20377;-60
2022/08/05 08:10:31;;;;;;;;;;;23.60;56.40;;;;;;5080365;28;19942;-62
2022/08/05 08:12:58;;;;;;;;;;;23.60;56.40;;;;;;5087061;28;19920;-62
2022/08/05 08:15:25;;;;;;;;;;;23.60;56.50;;;;;;5111991;27;20398;-62
2022/08/05 08:17:51;;;;;;;;;;;23.60;56.50;;;;;;5069547;28;20026;-61
2022/08/05 08:20:20;;;;;;;;;;;23.60;56.50;;;;;;5064930;28;19927;-62
2022/08/05 08:22:50;;;;;;;;;;;23.60;56.50;;;;;;5079030;28;19927;-60
2022/08/05 08:25:18;;;;;;;;;;;23.60;56.50;;;;;;5077327;28;19928;-62
2022/08/05 08:27:44;;;;;;;;;;;23.60;56.50;;;;;;5080488;28;20011;-61
2022/08/05 08:30:11;;;;;;;;;;;23.60;56.50;;;;;;5091158;28;20258;-61
2022/08/05 08:32:38;;;;;;;;;;;23.60;56.50;;;;;;5074100;28;19927;-62
2022/08/05 08:35:05;;;;;;;;;;;23.60;56.60;;;;;;5064488;28;20362;-62
2022/08/05 08:37:34;;;;;;;;;;;23.60;56.60;;;;;;5078754;28;20426;-62
2022/08/05 08:40:01;;;;;;;;;;;23.60;56.60;;;;;;5067437;28;20426;-62
2022/08/05 08:42:28;;;;;;;;;;;23.60;56.70;;;;;;5075384;28;19921;-62
2022/08/05 08:44:55;;;;;;;;;;;23.60;56.70;;;;;;5062599;28;19924;-62
2022/08/05 08:47:22;;;;;;;;;;;23.60;56.70;;;;;;5093922;27;19927;-62
2022/08/05 08:49:50;;;;;;;;;;;23.60;56.70;;;;;;5052352;28;19921;-62
2022/08/05 08:52:17;;;;;;;;;;;23.60;56.60;;;;;;5073068;28;20018;-61
2022/08/05 08:54:46;;;;;;;;;;;23.60;56.60;;;;;;5074373;28;19930;-60
2022/08/05 08:57:13;;;;;;;;;;;23.60;56.50;;;;;;5086157;27;20007;-62
2022/08/05 08:59:40;;;;;;;;;;;23.60;56.60;;;;;;5062198;28;20019;-61
2022/08/05 09:02:07;;;;;;;;;;;23.60;56.50;;;;;;5061869;28;19920;-62
2022/08/05 09:04:35;;;;;;;;;;;23.60;56.60;;;;;;5064554;28;20327;-62
2022/08/05 09:07:01;;;;;;;;;;;23.60;56.60;;;;;;5063723;28;19951;-61
2022/08/05 09:09:30;;;;;;;;;;;23.60;56.50;;;;;;5100879;27;19920;-62
2022/08/05 09:11:58;;;;;;;;;;;23.70;56.50;;;;;;5072900;28;19920;-60
2022/08/05 09:14:24;;;;;;;;;;;23.60;56.40;;;;;;5084079;28;19931;-62
2022/08/05 09:16:51;;;;;;;;;;;23.60;56.40;;;;;;5083647;28;20009;-62
2022/08/05 09:19:18;;;;;;;;;;;23.60;56.40;;;;;;5067982;28;20340;-61
2022/08/05 09:21:45;;;;;;;;;;;23.70;56.50;;;;;;5095563;27;20289;-61
2022/08/05 09:24:12;;;;;;;;;;;23.70;56.50;;;;;;5058724;28;19982;-62
2022/08/05 09:26:39;;;;;;;;;;;23.70;56.40;;;;;;5100003;27;19920;-63
2022/08/05 09:29:09;;;;;;;;;;;23.70;56.40;;;;;;5079970;28;19920;-63
2022/08/05 09:31:35;;;;;;;;;;;23.70;56.40;;;;;;5080219;28;20254;-62
2022/08/05 09:34:03;;;;;;;;;;;23.70;56.30;;;;;;5067337;28;19924;-62
2022/08/05 09:36:39;;;;;;;;;;;23.70;56.30;;;;;;5078905;28;19925;-62
2022/08/05 09:39:06;;;;;;;;;;;23.70;56.30;;;;;;5058543;28;20389;-60
2022/08/05 09:41:33;;;;;;;;;;;23.70;56.20;;;;;;5072471;28;19925;-62
2022/08/05 09:44:00;;;;;;;;;;;23.70;56.20;;;;;;5079278;28;19989;-62
2022/08/05 09:46:29;;;;;;;;;;;23.70;56.20;;;;;;5076257;28;20354;-61
2022/08/05 09:48:56;;;;;;;;;;;23.70;56.30;;;;;;5076119;28;20011;-62
2022/08/05 09:51:32;;;;;;;;;;;23.70;56.20;;;;;;5073875;28;19921;-62
2022/08/05 09:53:59;;;;;;;;;;;23.70;56.20;;;;;;5069835;28;20023;-62
2022/08/05 09:56:26;;;;;;;;;;;23.70;56.20;;;;;;5073650;28;19932;-62
2022/08/05 09:58:56;;;;;;;;;;;23.80;56.30;;;;;;5091311;27;20012;-62
2022/08/05 10:01:23;;;;;;;;;;;23.80;56.30;;;;;;5099688;27;20023;-62
2022/08/05 10:04:01;;;;;;;;;;;23.80;56.30;;;;;;5071361;28;19921;-61
2022/08/05 10:06:28;;;;;;;;;;;23.80;56.30;;;;;;5078988;28;19927;-62
2022/08/05 10:08:55;;;;;;;;;;;23.80;56.30;;;;;;5083828;28;19924;-62
2022/08/05 10:11:22;;;;;;;;;;;23.80;56.30;;;;;;5066476;28;19981;-62
2022/08/05 10:13:51;;;;;;;;;;;23.80;56.30;;;;;;5070707;28;20058;-62
2022/08/05 10:16:28;;;;;;;;;;;23.80;56.30;;;;;;5079455;28;19925;-62
2022/08/05 10:18:55;;;;;;;;;;;23.80;56.30;;;;;;5100546;27;20015;-61
2022/08/05 10:21:23;;;;;;;;;;;23.80;56.30;;;;;;5073252;28;19951;-60
2022/08/05 10:23:50;;;;;;;;;;;23.80;56.30;;;;;;5078833;28;19921;-62
2022/08/05 10:26:17;;;;;;;;;;;23.80;56.20;;;;;;5057061;28;19921;-61
2022/08/05 10:28:44;;;;;;;;;;;23.80;56.20;;;;;;5068235;28;19973;-62
2022/08/05 10:31:12;;;;;;;;;;;23.80;56.20;;;;;;5070201;28;19921;-61
2022/08/05 10:33:38;;;;;;;;;;;23.80;56.20;;;;;;5076781;28;19920;-61
2022/08/05 10:36:05;;;;;;;;;;;23.80;56.20;;;;;;5071881;28;19935;-61
2022/08/05 10:38:34;;;;;;;;;;;23.80;56.20;;;;;;5069895;28;19920;-60
2022/08/05 10:41:04;;;;;;;;;;;23.80;56.20;;;;;;5077712;28;20004;-61
2022/08/05 10:43:36;;;;;;;;;;;23.80;56.20;;;;;;5060736;28;20282;-61
2022/08/05 10:46:02;;;;;;;;;;;23.90;56.30;;;;;;5069001;28;19921;-62
2022/08/05 10:48:30;;;;;;;;;;;23.80;56.20;;;;;;5057541;28;19959;-62
2022/08/05 10:50:57;;;;;;;;;;;23.80;56.30;;;;;;5069454;28;19928;-60
2022/08/05 10:53:39;;;;;;;;;;;23.80;56.20;;;;;;5068802;28;19928;-62
2022/08/05 10:56:06;;;;;;;;;;;23.80;56.30;;;;;;5083332;28;19924;-61
2022/08/05 10:58:33;;;;;;;;;;;23.80;56.30;;;;;;5062604;28;19982;-61
2022/08/05 11:01:00;;;;;;;;;;;23.80;56.30;;;;;;5091839;28;19963;-60
2022/08/05 11:03:28;;;;;;;;;;;23.80;56.30;;;;;;5097885;28;19920;-62
2022/08/05 11:06:09;;;;;;;;;;;23.80;56.40;;;;;;5067752;28;19921;-61
2022/08/05 11:08:36;;;;;;;;;;;23.90;56.50;;;;;;5076996;28;20250;-61
2022/08/05 11:11:21;;;;;;;;;;;23.80;56.50;;;;;;5079369;28;19921;-61
2022/08/05 11:13:50;;;;;;;;;;;23.90;56.80;;;;;;5075122;28;19943;-60
2022/08/05 11:16:22;;;;;;;;;;;23.90;56.90;;;;;;5062378;28;19920;-61
2022/08/05 11:18:50;;;;;;;;;;;23.90;57.00;;;;;;5082533;28;19947;-61
2022/08/05 11:21:41;;;;;;;;;;;23.90;57.00;;;;;;5071071;28;19921;-61
2022/08/05 11:24:08;;;;;;;;;;;23.90;57.00;;;;;;5067285;28;20274;-61
2022/08/05 11:26:35;;;;;;;;;;;23.90;57.10;;;;;;5105806;27;19981;-62
2022/08/05 11:29:03;;;;;;;;;;;23.90;57.00;;;;;;5068669;28;19921;-63
2022/08/05 11:31:33;;;;;;;;;;;23.90;57.00;;;;;;5065480;28;19963;-62
2022/08/05 11:34:04;;;;;;;;;;;23.90;57.00;;;;;;5092527;28;19974;-61
2022/08/05 11:36:50;;;;;;;;;;;23.90;57.00;;;;;;5062956;28;19948;-62
2022/08/05 11:39:46;;;;;;;;;;;23.90;56.90;;;;;;5084956;28;19921;-61
2022/08/05 11:42:13;;;;;;;;;;;23.90;56.80;;;;;;5082469;28;19928;-62
2022/08/05 11:44:41;;;;;;;;;;;23.90;56.80;;;;;;5077766;28;19920;-61
2022/08/05 11:47:08;;;;;;;;;;;23.90;56.80;;;;;;5099947;28;19932;-61
2022/08/05 11:49:35;;;;;;;;;;;23.90;56.80;;;;;;5074935;28;19924;-60
2022/08/05 11:52:01;;;;;;;;;;;23.90;56.80;;;;;;5078279;28;19920;-60
2022/08/05 11:54:29;;;;;;;;;;;23.90;56.80;;;;;;5073819;28;19920;-62
2022/08/05 11:56:56;;;;;;;;;;;23.90;56.80;;;;;;5068497;28;19927;-61
2022/08/05 11:59:24;;;;;;;;;;;23.90;56.80;;;;;;5071517;28;19921;-62
2022/08/05 12:01:56;;;;;;;;;;;23.90;56.80;;;;;;5064344;28;19927;-61
2022/08/05 12:04:23;;;;;;;;;;;23.90;56.80;;;;;;5091804;28;19927;-61
2022/08/05 12:06:49;;;;;;;;;;;23.90;56.70;;;;;;5053878;28;19950;-62
2022/08/05 12:09:17;;;;;;;;;;;23.90;56.80;;;;;;5062567;28;19925;-61
2022/08/05 12:11:44;;;;;;;;;;;23.90;56.80;;;;;;5060762;28;19921;-60
2022/08/05 12:14:10;;;;;;;;;;;23.90;56.70;;;;;;5093868;28;20007;-61
2022/08/05 12:16:38;;;;;;;;;;;23.90;56.70;;;;;;5082412;28;19924;-61
2022/08/05 12:19:06;;;;;;;;;;;23.90;56.70;;;;;;5084286;28;19927;-60
2022/08/05 12:21:33;;;;;;;;;;;23.90;57.20;;;;;;5098267;27;19974;-62
2022/08/05 12:24:00;;;;;;;;;;;23.90;56.70;;;;;;5068077;28;19947;-61
2022/08/05 12:26:30;;;;;;;;;;;23.90;56.70;;;;;;5103799;27;20331;-61
2022/08/05 12:28:57;;;;;;;;;;;23.90;56.70;;;;;;5096463;28;19954;-61
2022/08/05 12:31:24;;;;;;;;;;;23.90;56.60;;;;;;5096139;27;19928;-62
2022/08/05 12:33:51;;;;;;;;;;;23.90;56.60;;;;;;5080512;28;19920;-63
2022/08/05 12:36:19;;;;;;;;;;;23.90;56.70;;;;;;5081806;28;20015;-62
2022/08/05 12:38:46;;;;;;;;;;;24.00;56.70;;;;;;5063691;28;19924;-61
2022/08/05 12:41:13;;;;;;;;;;;24.00;56.70;;;;;;5066529;28;19925;-61
2022/08/05 12:43:53;;;;;;;;;;;24.00;56.70;;;;;;5068581;28;19973;-62
2022/08/05 12:46:22;;;;;;;;;;;24.00;56.70;;;;;;5069426;28;19929;-61
2022/08/05 12:48:56;;;;;;;;;;;24.00;56.70;;;;;;5080101;28;20303;-61
2022/08/05 12:51:26;;;;;;;;;;;24.00;56.60;;;;;;5059106;28;19928;-61
2022/08/05 12:53:57;;;;;;;;;;;24.00;57.20;;;;;;5080904;28;19920;-62
2022/08/05 12:56:24;;;;;;;;;;;24.00;57.10;;;;;;5073745;28;19924;-62
2022/08/05 12:59:10;;;;;;;;;;;24.00;56.50;;;;;;5072574;28;19920;-61
2022/08/05 13:01:36;;;;;;;;;;;24.00;56.50;;;;;;5063563;28;19920;-63
2022/08/05 13:04:03;;;;;;;;;;;24.00;56.50;;;;;;5073938;28;20273;-61
2022/08/05 13:06:31;;;;;;;;;;;24.00;56.50;;;;;;5094062;27;19983;-61
2022/08/05 13:08:58;;;;;;;;;;;24.00;56.50;;;;;;5059075;28;19927;-61
2022/08/05 13:11:28;;;;;;;;;;;24.00;56.50;;;;;;5074147;28;19925;-61
2022/08/05 13:13:56;;;;;;;;;;;24.00;56.50;;;;;;5064468;28;19924;-62
2022/08/05 13:16:23;;;;;;;;;;;24.00;56.50;;;;;;5104760;27;19924;-62
2022/08/05 13:18:53;;;;;;;;;;;24.00;56.50;;;;;;5069256;28;19920;-60
2022/08/05 13:21:19;;;;;;;;;;;24.00;56.60;;;;;;5080058;28;19920;-62
2022/08/05 13:23:47;;;;;;;;;;;24.00;56.60;;;;;;5065929;28;19921;-59
2022/08/05 13:26:14;;;;;;;;;;;24.00;56.60;;;;;;5081877;28;19952;-61
2022/08/05 13:28:41;;;;;;;;;;;24.10;56.70;;;;;;5064506;28;19932;-61
2022/08/05 13:31:08;;;;;;;;;;;24.10;56.70;;;;;;5099698;28;19921;-62
2022/08/05 13:33:34;;;;;;;;;;;24.10;56.70;;;;;;5075658;28;20350;-61
2022/08/05 13:36:01;;;;;;;;;;;24.10;56.70;;;;;;5053936;28;20377;-61
2022/08/05 13:38:28;;;;;;;;;;;24.10;56.70;;;;;;5088479;28;19963;-62
2022/08/05 13:40:56;;;;;;;;;;;24.10;56.60;;;;;;5062414;28;19927;-62
2022/08/05 13:43:22;;;;;;;;;;;24.10;56.60;;;;;;5057107;28;19986;-60
2022/08/05 13:45:50;;;;;;;;;;;24.10;56.60;;;;;;5068040;28;19966;-61
2022/08/05 13:48:17;;;;;;;;;;;24.10;56.60;;;;;;5063717;28;19973;-60
2022/08/05 13:50:43;;;;;;;;;;;24.10;56.60;;;;;;5061118;28;19924;-61
2022/08/05 13:53:10;;;;;;;;;;;24.10;56.60;;;;;;5065690;28;20016;-62
2022/08/05 13:55:37;;;;;;;;;;;24.10;56.60;;;;;;5076903;28;19924;-62
2022/08/05 13:58:05;;;;;;;;;;;24.10;56.50;;;;;;5059495;28;19920;-61
2022/08/05 14:00:35;;;;;;;;;;;24.10;56.50;;;;;;5066143;28;19936;-62
2022/08/05 14:03:01;;;;;;;;;;;24.10;56.50;;;;;;5057383;28;19921;-62
2022/08/05 14:05:27;;;;;;;;;;;24.10;56.50;;;;;;5062376;28;19987;-62
2022/08/05 14:07:55;;;;;;;;;;;24.10;56.50;;;;;;5076169;28;19928;-61
2022/08/05 14:10:22;;;;;;;;;;;24.10;56.50;;;;;;5062652;28;19990;-61
2022/08/05 14:12:49;;;;;;;;;;;24.20;56.60;;;;;;5067601;28;19921;-61
2022/08/05 14:15:17;;;;;;;;;;;24.20;56.50;;;;;;5066797;28;20353;-61
2022/08/05 14:17:44;;;;;;;;;;;24.20;56.50;;;;;;5081592;28;19954;-61
2022/08/05 14:20:12;;;;;;;;;;;24.10;56.50;;;;;;5057614;28;19925;-62
2022/08/05 14:22:39;;;;;;;;;;;24.20;56.60;;;;;;5068865;28;19927;-62
2022/08/05 14:25:07;;;;;;;;;;;24.20;56.50;;;;;;5065642;28;19959;-62